Flight Track Log - Related Links

Times and Time Zones

All times are in EDT time to prevent confusion due to time zone crossing. See the UAL949 flight status page for this flight to view local times or setup timezone preferences in your user account.


Time Position Orientation Groundspeed Altitude Reporting Facility
EDT Latitude Longitude Course Direction KTS MPH feet Rate Location/Type
Mon 07:43:57 AM 51.4720 -0.4900 270° West 186 214 500  Level FlightAware ADS-B
Mon 07:44:24 AM 51.4747 -0.5331 276° West 192 221 1,800 2,800 Climbing FlightAware ADS-B
Mon 07:44:27 AM 51.4761 -0.5363 305° West 192 221 1,900 2,667 Climbing FlightAware ADS-B
Mon 07:44:33 AM 51.4793 -0.5427 309° West 191 220 2,200 2,800 Climbing FlightAware ADS-B
Mon 07:44:42 AM 51.4845 -0.5526 310° West 191 220 2,600 2,625 Climbing FlightAware ADS-B
Mon 07:44:49 AM 51.4885 -0.5608 308° West 192 221 2,900 2,000 Climbing FlightAware ADS-B
Mon 07:45:00 AM 51.4936 -0.5743 301° West 203 234 3,200 1,333 Climbing FlightAware ADS-B
Mon 07:45:07 AM 51.4972 -0.5846 299° West 215 247 3,300 750 Climbing FlightAware ADS-B
Mon 07:45:16 AM 51.5012 -0.5968 298° West 229 264 3,400 1,500 Climbing FlightAware ADS-B
Mon 07:45:31 AM 51.5085 -0.6206 296° West 245 282 3,900 2,308 Climbing FlightAware ADS-B
Mon 07:45:42 AM 51.5140 -0.6383 297° West 248 285 4,400 3,000 Climbing FlightAware ADS-B
Mon 07:45:47 AM 51.5169 -0.6472 298° West 248 285 4,700 3,333 Climbing FlightAware ADS-B
Mon 07:45:51 AM 51.5195 -0.6537 303° West 247 284 4,900 2,667 Climbing FlightAware ADS-B
Mon 07:45:56 AM 51.5226 -0.6601 308° West 248 285 5,100 2,667 Climbing FlightAware ADS-B
Mon 07:46:00 AM 51.5264 -0.6664 314° West 250 288 5,300 2,400 Climbing FlightAware ADS-B
Mon 07:46:06 AM 51.5317 -0.6729 323° Northwest 253 291 5,500 1,800 Climbing FlightAware ADS-B
Mon 07:46:10 AM 51.5353 -0.6759 333° Northwest 255 293 5,600 1,500 Climbing FlightAware ADS-B
Mon 07:46:14 AM 51.5397 -0.6784 340° North 257 296 5,700 1,714 Climbing FlightAware ADS-B
Mon 07:46:17 AM 51.5434 -0.6798 347° North 258 297 5,800 1,714 Climbing FlightAware ADS-B
Mon 07:46:21 AM 51.5489 -0.6812 351° North 262 302 5,900 2,250 Climbing FlightAware ADS-B
Mon 07:46:25 AM 51.5528 -0.6815 357° North 263 303 6,100 2,571 Climbing FlightAware ADS-B
Mon 07:46:28 AM 51.5573 -0.6815 360° North 265 305 6,200 1,125 Climbing FlightAware ADS-B
Mon 07:46:41 AM 51.5729 -0.6812 North 276 318 6,400 720 Climbing FlightAware ADS-B
Mon 07:46:53 AM 51.5884 -0.6817 359° North 276 318 6,500 692 Climbing FlightAware ADS-B
Mon 07:47:07 AM 51.6065 -0.6834 357° North 282 325 6,700 1,000 Climbing FlightAware ADS-B
Mon 07:47:23 AM 51.6275 -0.6862 355° North 294 338 7,000 667 Climbing FlightAware ADS-B
Mon 07:47:34 AM 51.6423 -0.6882 355° North 290 334 7,000  Level FlightAware ADS-B
Mon 07:47:39 AM 51.6498 -0.6886 358° North 288 331 7,000  Level FlightAware ADS-B
Mon 07:47:55 AM 51.6711 -0.6872 North 289 333 7,000  Level FlightAware ADS-B
Mon 07:48:11 AM 51.6915 -0.6851 North 290 334 7,000  Level FlightAware ADS-B
Mon 07:48:26 AM 51.7116 -0.6829 North 288 331 7,000  Level FlightAware ADS-B
Mon 07:48:42 AM 51.7326 -0.6803 North 289 333 7,000  Level FlightAware ADS-B
Mon 07:48:53 AM 51.7480 -0.6784 North 288 331 7,000  Level FlightAware ADS-B
Mon 07:49:09 AM 51.7688 -0.6760 North 288 331 7,000  Level FlightAware ADS-B
Mon 07:49:23 AM 51.7868 -0.6742 North 289 333 7,000  Level FlightAware ADS-B
Mon 07:49:28 AM 51.7942 -0.6731 North 289 333 7,000  Level FlightAware ADS-B
Mon 07:49:33 AM 51.8004 -0.6718 North 288 331 7,000  Level FlightAware ADS-B
Mon 07:49:38 AM 51.8079 -0.6692 12° North 288 331 7,000  Level FlightAware ADS-B
Mon 07:49:43 AM 51.8143 -0.6663 16° North 289 333 7,000  Level FlightAware ADS-B
Mon 07:49:50 AM 51.8223 -0.6616 20° North 288 331 7,000  Level FlightAware ADS-B
Mon 07:50:05 AM 51.8405 -0.6484 24° Northeast 288 331 7,000 400 Level FlightAware ADS-B
Mon 07:50:20 AM 51.8589 -0.6328 28° Northeast 290 334 7,200 2,129 Climbing FlightAware ADS-B
Mon 07:50:36 AM 51.8769 -0.6170 28° Northeast 282 325 8,100 3,429 Climbing FlightAware ADS-B
Mon 07:50:41 AM 51.8836 -0.6125 23° Northeast 280 322 8,400 3,818 Climbing FlightAware ADS-B
Mon 07:50:47 AM 51.8908 -0.6091 16° North 279 321 8,800 3,000 Climbing FlightAware ADS-B
Mon 07:50:57 AM 51.9027 -0.6063 North 281 323 9,200 2,800 Climbing FlightAware ADS-B
Mon 07:51:02 AM 51.9099 -0.6062 North 284 327 9,500 3,273 Climbing FlightAware ADS-B
Mon 07:51:08 AM 51.9183 -0.6068 357° North 287 330 9,800 2,769 Climbing FlightAware ADS-B
Mon 07:51:15 AM 51.9263 -0.6074 358° North 287 330 10,100 2,727 Climbing FlightAware ADS-B
Mon 07:51:19 AM 51.9318 -0.6074 360° North 288 331 10,300 1,588 Climbing FlightAware ADS-B
Mon 07:51:49 AM 51.9744 -0.5971 North 329 379 11,000 984 Climbing FlightAware ADS-B
Mon 07:52:20 AM 52.0245 -0.5844 North 386 444 11,300 1,770 Climbing FlightAware ADS-B
Mon 07:52:50 AM 52.0800 -0.5720 North 408 470 12,800 3,818 Climbing FlightAware ADS-B
Mon 07:53:04 AM 52.1075 -0.5682 North 399 459 14,100 5,684 Climbing FlightAware ADS-B
Mon 07:53:09 AM 52.1164 -0.5689 357° North 396 456 14,600 3,818 Climbing FlightAware ADS-B
Mon 07:53:26 AM 52.1459 -0.5809 346° North 402 463 15,500 2,400 Climbing FlightAware ADS-B
Mon 07:53:34 AM 52.1596 -0.5929 332° Northwest 415 478 15,600 1,200 Climbing FlightAware ADS-B
Mon 07:53:41 AM 52.1708 -0.6067 323° Northwest 423 487 15,800 2,500 Climbing FlightAware ADS-B
Mon 07:53:46 AM 52.1775 -0.6163 319° Northwest 424 488 16,100 4,457 Climbing FlightAware ADS-B
Mon 07:54:16 AM 52.2206 -0.6800 318° Northwest 415 478 18,400 3,148 Climbing FlightAware ADS-B
Mon 07:54:47 AM 52.2669 -0.7443 320° Northwest 442 509 19,300 2,222 Climbing FlightAware ADS-B
Mon 07:55:10 AM 52.3052 -0.7888 325° Northwest 449 517 20,400 2,700 Climbing FlightAware ADS-B
Mon 07:55:47 AM 52.3735 -0.8539 330° Northwest 464 534 22,000 2,471 Climbing FlightAware ADS-B
Mon 07:56:01 AM 52.3987 -0.8765 331° Northwest 468 539 22,500 1,565 Climbing FlightAware ADS-B
Mon 07:56:33 AM 52.4625 -0.9258 335° Northwest 480 552 23,200 2,032 Climbing FlightAware ADS-B
Mon 07:57:03 AM 52.5223 -0.9723 335° Northwest 479 551 24,600 2,500 Climbing FlightAware ADS-B
Mon 07:57:33 AM 52.5843 -1.0197 335° Northwest 486 559 25,700 128 Climbing FlightAware ADS-B
Mon 07:57:50 AM 52.6159 -1.0489 335° Northwest 484 557 24,700 2,516 Descending FlightAware UK
Mon 07:58:04 AM 52.6466 -1.0676 335° Northwest 487 560 27,000 5,231 Climbing FlightAware ADS-B
Mon 07:58:29 AM 52.6957 -1.1093 333° Northwest 480 552 28,100 2,500 Climbing FlightAware ADS-B
Mon 07:58:40 AM 52.7167 -1.1333 325° Northwest 477 549 28,500 -545 Climbing FlightAware ADS-B
Mon 07:59:02 AM 52.7537 -1.1813 325° Northwest 472 543 27,800 1,950 Descending FlightAware UK
Mon 07:59:20 AM 52.7884 -1.2149 325° Northwest 476 548 29,800 2,000 Climbing FlightAware ADS-B
Mon 08:00:08 AM 52.8755 -1.3135 326° Northwest 480 552 30,000 -1,083 Climbing FlightAware ADS-B
Mon 08:00:32 AM 52.9178 -1.3666 326° Northwest 486 559 28,500  Descending FlightAware UK
Mon 08:00:44 AM 52.9422 -1.3900 326° Northwest 493 567 30,000  Climbing FlightAware ADS-B
Mon 08:01:08 AM 52.9851 -1.4434 326° Northwest 492 566 28,500  Descending FlightAware UK
Mon 08:01:14 AM 52.9991 -1.4550 326° Northwest 498 573 30,000 -250 Climbing FlightAware ADS-B
Mon 08:01:32 AM 53.0303 -1.4954 326° Northwest 484 557 28,400 621 Descending FlightAware UK
Mon 08:02:12 AM 53.1030 -1.5760 326° Northwest 484 557 30,600 3,000 Climbing FlightAware ADS-B
Mon 08:02:18 AM 53.1160 -1.5962 317° Northwest 484 557 30,700 545 Climbing FlightAware ADS-B
Mon 08:02:23 AM 53.1223 -1.6068 315° West 484 557 30,700 -2,308 Level FlightAware ADS-B
Mon 08:02:44 AM 53.1539 -1.6651 315° West 486 559 29,700 1,333 Descending FlightAware UK
Mon 08:02:59 AM 53.1800 -1.7034 315° West 486 559 31,500 1,400 Climbing FlightAware ADS-B
Mon 08:03:14 AM 53.2015 -1.7439 315° West 480 552 30,400 -364 Descending FlightAware UK
Mon 08:03:32 AM 53.2291 -1.7883 316° Northwest 474 545 31,300 6,522 Climbing FlightAware UK
Mon 08:03:37 AM 53.2350 -1.7930 316° Northwest 461 531 32,900 6,286 Climbing FlightAware ADS-B
Mon 08:03:53 AM 53.2627 -1.8385 316° Northwest 456 525 33,500 -811 Climbing FlightAware ADS-B
Mon 08:04:14 AM 53.2927 -1.8903 316° Northwest 464 534 32,400 789 Descending FlightAware UK
Mon 08:04:31 AM 53.3208 -1.9327 316° Northwest 456 525 34,000 167 Climbing FlightAware ADS-B
Mon 08:04:50 AM 53.3447 -1.9831 316° Northwest 468 539 32,500  Descending FlightAware UK
Mon 08:05:02 AM 53.3570 -2.0150 316° Northwest 453 521 34,000 2,903 Climbing FlightAware ADS-B
Mon 08:05:21 AM 53.3782 -2.0778 300° West 454 522 34,000 -2,195 Level FlightAware ADS-B
Mon 08:05:43 AM 53.4002 -2.1468 300° West 472 543 32,500 -1,552 Descending FlightAware UK
Mon 08:06:19 AM 53.4399 -2.2539 302° West 468 539 32,500 2,045 Level FlightAware UK
Mon 08:06:27 AM 53.4470 -2.2680 302° West 449 517 34,000  Climbing FlightAware ADS-B
Mon 08:06:43 AM 53.4663 -2.3244 302° West 466 536 32,500  Descending FlightAware UK
Mon 08:07:07 AM 53.4880 -2.3860 302° West 445 512 34,000  Climbing FlightAware ADS-B
Mon 08:07:25 AM 53.5089 -2.4497 302° West 460 529 32,500 -2,500 Descending FlightAware UK
Mon 08:07:43 AM 53.5269 -2.5029 300° West 460 529 32,500 4,091 Level FlightAware UK
Mon 08:07:47 AM 53.5270 -2.5000 300° West 443 510 34,000  Climbing FlightAware ADS-B
Mon 08:08:07 AM 53.5511 -2.5747 300° West 462 532 32,500  Descending FlightAware UK
Mon 08:08:32 AM 53.5740 -2.6420 300° West 442 509 34,000  Climbing FlightAware ADS-B
Mon 08:08:55 AM 53.5961 -2.7200 300° West 462 532 32,500  Descending FlightAware UK
Mon 08:09:12 AM 53.6080 -2.7570 300° West 441 507 34,000 1,579 Climbing FlightAware ADS-B
Mon 08:09:52 AM 53.6440 -2.8870 295° West 441 507 34,000 -1,636 Level FlightAware ADS-B
Mon 08:10:07 AM 53.6595 -2.9424 295° West 460 529 32,500 -2,308 Descending FlightAware UK
Mon 08:10:31 AM 53.6804 -3.0171 295° West 462 532 32,500 3,600 Level FlightAware UK
Mon 08:10:32 AM 53.6770 -3.0020 295° West 442 509 34,000  Climbing FlightAware ADS-B
Mon 08:10:49 AM 53.6960 -3.0725 295° West 462 532 32,500  Descending FlightAware UK
Mon 08:11:17 AM 53.7200 -3.1560 295° West 445 512 34,000  Climbing FlightAware ADS-B
Mon 08:11:37 AM 53.7383 -3.2224 295° West 464 534 32,500 -2,368 Descending FlightAware UK
Mon 08:11:55 AM 53.7542 -3.2781 296° West 464 534 32,500 4,500 Level FlightAware UK
Mon 08:11:57 AM 53.7540 -3.2760 296° West 446 513 34,000  Climbing FlightAware ADS-B
Mon 08:12:19 AM 53.7757 -3.3543 296° West 466 536 32,500  Descending FlightAware UK
Mon 08:12:37 AM 53.7910 -3.4060 296° West 448 516 34,000  Climbing FlightAware ADS-B
Mon 08:12:55 AM 53.8076 -3.4674 296° West 468 539 32,500 -2,143 Descending FlightAware UK
Mon 08:13:19 AM 53.8289 -3.5434 295° West 468 539 32,500 3,333 Level FlightAware UK
Mon 08:13:22 AM 53.8290 -3.5430 295° West 450 518 34,000 1,875 Climbing FlightAware ADS-B
Mon 08:14:07 AM 53.8680 -3.6830 295° West 450 518 34,000 -1,200 Level FlightAware ADS-B
Mon 08:14:37 AM 53.8972 -3.7919 295° West 468 539 32,500  Descending FlightAware UK
Mon 08:14:47 AM 53.9030 -3.8140 295° West 451 519 34,000  Climbing FlightAware ADS-B
Mon 08:15:07 AM 53.9230 -3.8883 295° West 472 543 32,500  Descending FlightAware UK
Mon 08:15:27 AM 53.9400 -3.9410 295° West 453 521 34,000  Climbing FlightAware ADS-B
Mon 08:15:48 AM 53.9660 -4.0177 295° West 468 539 32,500 -2,250 Descending FlightAware UK
Mon 08:16:07 AM 53.9852 -4.0735 300° West 472 543 32,500 3,750 Level FlightAware UK
Mon 08:16:12 AM 53.9840 -4.0680 300° West 453 521 34,000  Climbing FlightAware ADS-B
Mon 08:16:42 AM 54.0232 -4.1828 300° West 468 539 32,500  Descending FlightAware UK
Mon 08:16:52 AM 54.0290 -4.1990 300° West 452 520 34,000  Climbing FlightAware ADS-B
Mon 08:17:12 AM 54.0549 -4.2748 300° West 466 536 32,500  Descending FlightAware UK
Mon 08:17:37 AM 54.0770 -4.3390 300° West 454 522 34,000  Climbing FlightAware ADS-B
Mon 08:18:06 AM 54.1116 -4.4412 300° West 468 539 32,500  Descending FlightAware UK
Mon 08:18:17 AM 54.1180 -4.4600 300° West 455 524 34,000 1,765 Climbing FlightAware ADS-B
Mon 08:18:57 AM 54.1600 -4.5830 300° West 456 525 34,000 -1,636 Level FlightAware ADS-B
Mon 08:19:12 AM 54.1807 -4.6460 300° West 470 541 32,500 -2,727 Descending FlightAware UK
Mon 08:19:30 AM 54.1996 -4.7020 300° West 472 543 32,500 3,000 Level FlightAware UK
Mon 08:19:42 AM 54.2090 -4.7280 300° West 456 525 34,000  Climbing FlightAware ADS-B
Mon 08:20:00 AM 54.2312 -4.7955 300° West 470 541 32,500 -2,500 Descending FlightAware UK
Mon 08:20:18 AM 54.2499 -4.8519 300° West 472 543 32,500 4,091 Level FlightAware UK
Mon 08:20:22 AM 54.2510 -4.8530 300° West 456 525 34,000  Climbing FlightAware ADS-B
Mon 08:20:42 AM 54.2747 -4.9264 300° West 470 541 32,500 -2,368 Descending FlightAware UK
Mon 08:21:00 AM 54.2935 -4.9827 300° West 470 541 32,500 3,600 Level FlightAware UK
Mon 08:21:07 AM 54.2990 -4.9980 300° West 456 525 34,000  Climbing FlightAware ADS-B
Mon 08:21:30 AM 54.3247 -5.0764 300° West 472 543 32,500  Descending FlightAware UK
Mon 08:21:47 AM 54.3410 -5.1220 300° West 454 522 34,000  Climbing FlightAware ADS-B
Mon 08:22:06 AM 54.3620 -5.1892 300° West 470 541 32,500  Descending FlightAware UK
Mon 08:22:27 AM 54.3820 -5.2480 300° West 454 522 34,000  Climbing FlightAware ADS-B
Mon 08:22:42 AM 54.3991 -5.3018 300° West 468 539 32,500 -2,727 Descending FlightAware UK
Mon 08:23:00 AM 54.4175 -5.3583 299° West 468 539 32,500 3,000 Level FlightAware UK
Mon 08:23:12 AM 54.4260 -5.3830 299° West 453 521 34,000  Climbing FlightAware ADS-B
Mon 08:23:30 AM 54.4482 -5.4522 299° West 466 536 32,500 -2,500 Descending FlightAware UK
Mon 08:23:48 AM 54.4666 -5.5085 299° West 466 536 32,500 4,091 Level FlightAware UK
Mon 08:23:52 AM 54.4680 -5.5090 299° West 453 521 34,000  Climbing FlightAware ADS-B
Mon 08:24:12 AM 54.4911 -5.5837 299° West 466 536 32,500 -2,368 Descending FlightAware UK
Mon 08:24:30 AM 54.5094 -5.6402 299° West 466 536 32,500 4,500 Level FlightAware UK
Mon 08:24:32 AM 54.5090 -5.6360 299° West 453 521 34,000  Climbing FlightAware ADS-B
Mon 08:24:48 AM 54.5277 -5.6967 299° West 470 541 32,500 -2,647 Descending FlightAware UK
Mon 08:25:06 AM 54.5460 -5.7533 299° West 470 541 32,500 3,750 Level FlightAware UK
Mon 08:25:12 AM 54.5480 -5.7560 299° West 453 521 34,000  Climbing FlightAware ADS-B
Mon 08:25:30 AM 54.5705 -5.8287 299° West 470 541 32,500 -2,500 Descending FlightAware UK
Mon 08:25:48 AM 54.5886 -5.8854 299° West 470 541 32,500  Level FlightAware UK
Mon 08:26:06 AM 54.6068 -5.9419 299° West 470 541 32,500 3,750 Level FlightAware UK
Mon 08:26:12 AM 54.6130 -5.9570 299° West 451 519 34,000  Climbing FlightAware ADS-B
Mon 08:26:30 AM 54.6311 -6.0172 299° West 468 539 32,500 -2,500 Descending FlightAware UK
Mon 08:26:48 AM 54.6488 -6.0740 298° West 468 539 32,500  Level FlightAware UK
Mon 08:27:06 AM 54.6668 -6.1302 299° West 466 536 32,500 3,103 Level FlightAware UK
Mon 08:27:17 AM 54.6760 -6.1540 299° West 449 517 34,000  Climbing FlightAware ADS-B
Mon 08:27:36 AM 54.6963 -6.2243 299° West 466 536 32,500 -2,432 Descending FlightAware UK
Mon 08:27:54 AM 54.7142 -6.2803 299° West 466 536 32,500  Level FlightAware UK
Mon 08:28:12 AM 54.7317 -6.3369 298° West 466 536 32,500  Level FlightAware UK
Mon 08:28:30 AM 54.7494 -6.3935 298° West 466 536 32,500 4,500 Level FlightAware UK
Mon 08:28:32 AM 54.7510 -6.3900 298° West 447 514 34,000  Climbing FlightAware ADS-B
Mon 08:29:00 AM 54.7790 -6.4875 298° West 466 536 32,500  Descending FlightAware UK
Mon 08:29:17 AM 54.7940 -6.5260 298° West 446 513 34,000  Climbing FlightAware ADS-B
Mon 08:29:36 AM 54.8143 -6.6003 298° West 464 534 32,500 -2,432 Descending FlightAware UK
Mon 08:29:54 AM 54.8317 -6.6568 298° West 464 534 32,500 4,286 Level FlightAware UK
Mon 08:29:57 AM 54.8330 -6.6530 298° West 444 511 34,000  Climbing FlightAware ADS-B
Mon 08:30:12 AM 54.8491 -6.7131 298° West 462 532 32,500 -2,727 Descending FlightAware UK
Mon 08:30:30 AM 54.8665 -6.7693 298° West 464 534 32,500 3,600 Level FlightAware UK
Mon 08:30:37 AM 54.8730 -6.7790 298° West 443 510 34,000  Climbing FlightAware ADS-B
Mon 08:30:54 AM 54.8897 -6.8443 298° West 466 536 32,500 -2,571 Descending FlightAware UK
Mon 08:31:12 AM 54.9070 -6.9007 298° West 466 536 32,500 3,214 Level FlightAware UK
Mon 08:31:22 AM 54.9160 -6.9200 298° West 444 511 34,000  Climbing FlightAware ADS-B
Mon 08:31:42 AM 54.9358 -6.9950 298° West 466 536 32,500  Descending FlightAware UK
Mon 08:31:57 AM 54.9480 -7.0230 298° West 444 511 34,000  Climbing FlightAware ADS-B
Mon 08:32:00 AM 54.9530 -7.0516 298° West 466 536 32,500 -6,000 Descending FlightAware UK
Mon 08:32:12 AM 54.9644 -7.0893 298° West 466 536 32,500  Level FlightAware UK
Mon 08:32:30 AM 54.9816 -7.1460 298° West 468 539 32,500  Level FlightAware UK
Mon 08:32:48 AM 54.9987 -7.2027 298° West 468 539 32,500  Level FlightAware UK
Mon 08:33:06 AM 55.0159 -7.2595 298° West 466 536 32,500  Level FlightAware UK
Mon 08:33:24 AM 55.0331 -7.3164 298° West 464 534 32,500  Level FlightAware UK
Mon 08:33:42 AM 55.0501 -7.3734 298° West 464 534 32,500  Level FlightAware UK
Mon 08:34:00 AM 55.0670 -7.4297 298° West 466 536 32,500  Level FlightAware UK
Mon 08:34:18 AM 55.0840 -7.4867 298° West 466 536 32,500  Level FlightAware UK
Mon 08:34:36 AM 55.1011 -7.5438 298° West 470 541 32,500  Level FlightAware UK
Mon 08:34:54 AM 55.1181 -7.6010 298° West 472 543 32,500  Level FlightAware UK
Mon 08:35:12 AM 55.1350 -7.6583 297° West 470 541 32,500  Level FlightAware UK
Mon 08:35:30 AM 55.1522 -7.7155 298° West 468 539 32,500  Level FlightAware UK
Mon 08:35:48 AM 55.1692 -7.7728 297° West 470 541 32,500  Level FlightAware UK
Mon 08:36:06 AM 55.1862 -7.8300 298° West 468 539 32,500  Level FlightAware UK
Mon 08:36:24 AM 55.2032 -7.8871 298° West 468 539 32,500  Level FlightAware UK
Mon 08:36:42 AM 55.2200 -7.9444 297° West 466 536 32,500  Level FlightAware UK
Mon 08:37:00 AM 55.2368 -8.0017 297° West 468 539 32,500  Level FlightAware UK
Mon 08:37:18 AM 55.2535 -8.0589 297° West 468 539 32,500  Level FlightAware UK
Mon 08:37:36 AM 55.2702 -8.1160 297° West 468 539 32,500  Level FlightAware UK
Mon 08:37:54 AM 55.2867 -8.1732 297° West 468 539 32,500  Level FlightAware UK
Mon 08:38:12 AM 55.3033 -8.2303 297° West 468 539 32,500  Level FlightAware UK
Mon 08:38:30 AM 55.3199 -8.2874 297° West 468 539 32,500 4,500 Level FlightAware UK
Mon 08:38:32 AM 55.3240 -8.2800 297° West 436 502 34,000  Climbing FlightAware ADS-B
Mon 08:38:48 AM 55.3365 -8.3444 297° West 468 539 32,500 -2,647 Descending FlightAware UK
Mon 08:39:06 AM 55.3532 -8.4014 297° West 466 536 32,500 3,103 Level FlightAware UK
Mon 08:39:17 AM 55.3660 -8.4250 297° West 437 503 34,000  Climbing FlightAware ADS-B
Mon 08:39:36 AM 55.3803 -8.4965 297° West 470 541 32,500 -2,432 Descending FlightAware UK
Mon 08:39:54 AM 55.3966 -8.5534 297° West 466 536 32,500 3,462 Level FlightAware UK
Mon 08:40:02 AM 55.4080 -8.5690 297° West 436 502 34,000  Climbing FlightAware ADS-B
Mon 08:40:18 AM 55.4183 -8.6291 297° West 464 534 32,500 -2,647 Descending FlightAware UK
Mon 08:40:36 AM 55.4345 -8.6860 297° West 464 534 32,500  Level FlightAware UK
Mon 08:40:54 AM 55.4505 -8.7423 297° West 462 532 32,500 2,903 Level FlightAware UK
Mon 08:41:07 AM 55.4640 -8.7650 297° West 436 502 34,000  Climbing FlightAware ADS-B
Mon 08:41:24 AM 55.4776 -8.8370 297° West 466 536 32,500 -2,571 Descending FlightAware UK
Mon 08:41:42 AM 55.4942 -8.8935 297° West 468 539 32,500 3,214 Level FlightAware UK
Mon 08:41:52 AM 55.5060 -8.9100 297° West 435 501 34,000  Climbing FlightAware ADS-B
Mon 08:42:12 AM 55.5211 -8.9885 297° West 468 539 32,500  Descending FlightAware UK
Mon 08:42:32 AM 55.5420 -9.0380 297° West 434 499 34,000 1,385 Climbing FlightAware ADS-B
Mon 08:43:17 AM 55.5810 -9.1780 296° West 429 494 34,000  Level FlightAware ADS-B
Mon 08:43:57 AM 55.6160 -9.3050 296° West 429 494 34,000  Level FlightAware ADS-B
Mon 08:44:37 AM 55.6500 -9.4270 296° West 428 493 34,000  Level FlightAware ADS-B
Mon 08:45:22 AM 55.6900 -9.5710 296° West 429 494 34,000  Level FlightAware ADS-B
Mon 08:46:02 AM 55.7260 -9.7050 296° West 427 491 34,000  Level FlightAware ADS-B
Mon 08:46:42 AM 55.7610 -9.8330 296° West 427 491 34,000  Level FlightAware ADS-B
Mon 08:47:27 AM 55.8000 -9.9750 296° West 426 490 34,000  Level FlightAware ADS-B
Mon 08:48:07 AM 55.8340 -10.1000 296° West 425 489 34,000  Level FlightAware ADS-B
Mon 08:48:52 AM 55.8730 -10.2460 296° West 425 489 34,000  Level FlightAware ADS-B
Mon 08:49:32 AM 55.9060 -10.3710 295° West 425 489 34,000  Level FlightAware ADS-B
Mon 08:50:12 AM 55.9370 -10.4900 295° West 425 489 34,000  Level FlightAware ADS-B
Mon 08:50:57 AM 55.9730 -10.6250 296° West 425 489 34,000  Level FlightAware ADS-B
Mon 08:51:52 AM 56.0190 -10.8020 295° West 425 489 34,000  Level FlightAware ADS-B
Mon 08:52:27 AM 56.0470 -10.9080 295° West 425 489 34,000  Level FlightAware ADS-B
Mon 08:53:17 AM 56.0820 -11.0430 295° West 425 489 34,000  Level FlightAware ADS-B
Mon 08:53:57 AM 56.1100 -11.1520 295° West 425 489 34,000  Level FlightAware ADS-B
Mon 08:54:37 AM 56.1390 -11.2610 296° West 425 489 34,000  Level FlightAware ADS-B
Mon 08:56:37 AM 56.2550 -11.7310 294° West 421 484 34,000  Level FlightAware ADS-B
Mon 08:57:12 AM 56.2820 -11.8400 294° West 419 482 34,000  Level FlightAware ADS-B
Mon 08:58:07 AM 56.3230 -12.0120 293° West 417 480 34,000  Level FlightAware ADS-B
Mon 08:58:47 AM 56.3480 -12.1220 292° West 417 480 34,000  Level FlightAware ADS-B
Mon 08:59:37 AM 56.3780 -12.2590 292° West 417 480 34,000  Level FlightAware ADS-B
Mon 09:00:17 AM 56.4030 -12.3690 292° West 417 480 34,000  Level FlightAware ADS-B
Mon 09:00:57 AM 56.4270 -12.4790 292° West 417 480 34,000  Level FlightAware ADS-B
Mon 09:01:37 AM 56.4520 -12.5890 292° West 417 480 34,000  Level FlightAware ADS-B
Mon 09:02:17 AM 56.4770 -12.6990 292° West 417 480 34,000  Level FlightAware ADS-B
Mon 09:03:07 AM 56.5070 -12.8370 292° West 417 480 34,000  Level FlightAware ADS-B
Mon 09:03:47 AM 56.5320 -12.9470 292° West 417 480 34,000  Level FlightAware ADS-B
Mon 09:04:27 AM 56.5560 -13.0580 291° West 417 480 34,000  Level FlightAware ADS-B
Mon 09:05:07 AM 56.5810 -13.1680 292° West 417 480 34,000  Level FlightAware ADS-B
Mon 09:05:47 AM 56.6060 -13.2790 292° West 417 480 34,000  Level FlightAware ADS-B
Mon 09:06:37 AM 56.6360 -13.4170 292° West 417 480 34,000  Level FlightAware ADS-B
Mon 09:07:17 AM 56.6610 -13.5270 293° West 417 480 34,000 Level FlightAware ADS-B
Mon 09:09:00 AM 56.7119 -13.8615 286° West  Level Estimated
Mon 09:10:00 AM 56.7412 -14.0568 285° West  Level Estimated
Mon 09:11:00 AM 56.7702 -14.2524 285° West  Level Estimated
Mon 09:12:00 AM 56.7988 -14.4483 285° West  Level Estimated
Mon 09:13:00 AM 56.8272 -14.6445 285° West  Level Estimated
Mon 09:14:00 AM 56.8552 -14.8410 285° West  Level Estimated
Mon 09:15:00 AM 56.8829 -15.0378 285° West  Level Estimated
Mon 09:16:00 AM 56.9104 -15.2352 284° West  Level Estimated
Mon 09:17:00 AM 56.9376 -15.4329 284° West  Level Estimated
Mon 09:18:00 AM 56.9644 -15.6310 284° West  Level Estimated
Mon 09:19:00 AM 56.9909 -15.8293 284° West  Level Estimated
Mon 09:20:00 AM 57.0191 -16.0424 284° West  Level Estimated
Mon 09:21:00 AM 57.0468 -16.2558 284° West  Level Estimated
Mon 09:22:00 AM 57.0742 -16.4696 283° West  Level Estimated
Mon 09:23:00 AM 57.1012 -16.6836 283° West  Level Estimated
Mon 09:24:00 AM 57.1279 -16.8980 283° West  Level Estimated
Mon 09:25:00 AM 57.1542 -17.1127 283° West  Level Estimated
Mon 09:26:00 AM 57.1801 -17.3277 283° West  Level Estimated
Mon 09:27:00 AM 57.2057 -17.5430 282° West  Level Estimated
Mon 09:28:00 AM 57.2309 -17.7586 282° West  Level Estimated
Mon 09:29:00 AM 57.2557 -17.9744 282° West  Level Estimated
Mon 09:30:00 AM 57.2802 -18.1906 282° West  Level Estimated
Mon 09:31:00 AM 57.3043 -18.4070 282° West  Level Estimated
Mon 09:32:00 AM 57.3280 -18.6238 282° West  Level Estimated
Mon 09:33:00 AM 57.3513 -18.8408 281° West  Level Estimated
Mon 09:34:00 AM 57.3743 -19.0581 281° West  Level Estimated
Mon 09:35:00 AM 57.3969 -19.2756 281° West  Level Estimated
Mon 09:36:00 AM 57.4191 -19.4934 281° West  Level Estimated
Mon 09:37:00 AM 57.4410 -19.7115 281° West  Level Estimated
Mon 09:38:00 AM 57.4624 -19.9298 280° West  Level Estimated
Mon 09:39:00 AM 57.4835 -20.1484 280° West  Level Estimated
Mon 09:40:00 AM 57.5042 -20.3673 280° West  Level Estimated
Mon 09:41:00 AM 57.5246 -20.5864 280° West  Level Estimated
Mon 09:42:00 AM 57.5436 -20.7952 280° West  Level Estimated
Mon 09:43:00 AM 57.5622 -21.0043 280° West  Level Estimated
Mon 09:44:00 AM 57.5805 -21.2136 279° West  Level Estimated
Mon 09:45:00 AM 57.5985 -21.4231 279° West  Level Estimated
Mon 09:46:00 AM 57.6161 -21.6328 279° West  Level Estimated
Mon 09:47:00 AM 57.6334 -21.8427 279° West  Level Estimated
Mon 09:48:00 AM 57.6503 -22.0527 279° West  Level Estimated
Mon 09:49:00 AM 57.6669 -22.2630 278° West  Level Estimated
Mon 09:50:00 AM 57.6831 -22.4735 278° West  Level Estimated
Mon 09:51:00 AM 57.6990 -22.6842 278° West  Level Estimated
Mon 09:52:00 AM 57.7145 -22.8950 278° West  Level Estimated
Mon 09:53:00 AM 57.7297 -23.1061 278° West  Level Estimated
Mon 09:54:00 AM 57.7445 -23.3173 278° West  Level Estimated
Mon 09:55:00 AM 57.7590 -23.5286 277° West  Level Estimated
Mon 09:56:00 AM 57.7731 -23.7402 277° West  Level Estimated
Mon 09:57:00 AM 57.7869 -23.9519 277° West  Level Estimated
Mon 09:58:00 AM 57.8003 -24.1637 277° West  Level Estimated
Mon 09:59:00 AM 57.8134 -24.3758 277° West  Level Estimated
Mon 10:00:00 AM 57.8261 -24.5879 277° West  Level Estimated
Mon 10:01:00 AM 57.8385 -24.8002 276° West  Level Estimated
Mon 10:02:00 AM 57.8504 -25.0127 276° West  Level Estimated
Mon 10:03:00 AM 57.8621 -25.2253 276° West  Level Estimated
Mon 10:04:00 AM 57.8734 -25.4380 276° West  Level Estimated
Mon 10:05:00 AM 57.8843 -25.6509 276° West  Level Estimated
Mon 10:06:00 AM 57.8949 -25.8639 275° West  Level Estimated
Mon 10:07:00 AM 57.9051 -26.0770 275° West  Level Estimated
Mon 10:08:00 AM 57.9150 -26.2903 275° West  Level Estimated
Mon 10:09:00 AM 57.9245 -26.5036 275° West  Level Estimated
Mon 10:10:00 AM 57.9336 -26.7171 275° West  Level Estimated
Mon 10:11:00 AM 57.9424 -26.9307 275° West  Level Estimated
Mon 10:12:00 AM 57.9509 -27.1443 274° West  Level Estimated
Mon 10:13:00 AM 57.9589 -27.3581 274° West  Level Estimated
Mon 10:14:00 AM 57.9666 -27.5720 274° West  Level Estimated
Mon 10:15:00 AM 57.9740 -27.7859 274° West  Level Estimated
Mon 10:16:00 AM 57.9810 -28.0000 274° West  Level Estimated
Mon 10:17:00 AM 57.9876 -28.2141 273° West  Level Estimated
Mon 10:18:00 AM 57.9939 -28.4283 273° West  Level Estimated
Mon 10:19:00 AM 57.9998 -28.6426 273° West  Level Estimated
Mon 10:20:00 AM 58.0054 -28.8569 273° West  Level Estimated
Mon 10:21:00 AM 58.0106 -29.0713 273° West  Level Estimated
Mon 10:22:00 AM 58.0154 -29.2858 273° West  Level Estimated
Mon 10:23:00 AM 58.0199 -29.5003 272° West  Level Estimated
Mon 10:24:00 AM 58.0240 -29.7149 272° West  Level Estimated
Mon 10:25:00 AM 58.0278 -29.9295 272° West  Level Estimated
Mon 10:26:00 AM 58.0312 -30.1441 272° West  Level Estimated
Mon 10:27:00 AM 58.0342 -30.3589 272° West  Level Estimated
Mon 10:28:00 AM 58.0368 -30.5736 271° West  Level Estimated
Mon 10:29:00 AM 58.0392 -30.7884 271° West  Level Estimated
Mon 10:30:00 AM 58.0411 -31.0032 271° West  Level Estimated
Mon 10:31:00 AM 58.0427 -31.2180 271° West  Level Estimated
Mon 10:32:00 AM 58.0439 -31.4328 271° West  Level Estimated
Mon 10:33:00 AM 58.0448 -31.6476 271° West  Level Estimated
Mon 10:34:00 AM 58.0453 -31.8625 270° West  Level Estimated
Mon 10:35:00 AM 58.0454 -32.0773 270° West  Level Estimated
Mon 10:36:00 AM 58.0452 -32.2922 270° West  Level Estimated
Mon 10:37:00 AM 58.0446 -32.5070 270° West  Level Estimated
Mon 10:38:00 AM 58.0436 -32.7219 270° West  Level Estimated
Mon 10:39:00 AM 58.0423 -32.9367 269° West  Level Estimated
Mon 10:40:00 AM 58.0407 -33.1515 269° West  Level Estimated
Mon 10:41:00 AM 58.0386 -33.3663 269° West  Level Estimated
Mon 10:42:00 AM 58.0362 -33.5811 269° West  Level Estimated
Mon 10:43:00 AM 58.0335 -33.7958 269° West  Level Estimated
Mon 10:44:00 AM 58.0303 -34.0105 269° West  Level Estimated
Mon 10:45:00 AM 58.0269 -34.2251 268° West  Level Estimated
Mon 10:46:00 AM 58.0230 -34.4397 268° West  Level Estimated
Mon 10:47:00 AM 58.0188 -34.6543 268° West  Level Estimated
Mon 10:48:00 AM 58.0143 -34.8688 268° West  Level Estimated
Mon 10:49:00 AM 58.0093 -35.0833 268° West  Level Estimated
Mon 10:50:00 AM 58.0041 -35.2976 267° West  Level Estimated
Mon 10:51:00 AM 57.9984 -35.5120 267° West  Level Estimated
Mon 10:52:00 AM 57.9924 -35.7262 267° West  Level Estimated
Mon 10:53:00 AM 57.9861 -35.9404 267° West  Level Estimated
Mon 10:54:00 AM 57.9794 -36.1545 267° West  Level Estimated
Mon 10:55:00 AM 57.9723 -36.3685 267° West  Level Estimated
Mon 10:56:00 AM 57.9648 -36.5825 266° West  Level Estimated
Mon 10:57:00 AM 57.9570 -36.7963 266° West  Level Estimated
Mon 10:58:00 AM 57.9489 -37.0101 266° West  Level Estimated
Mon 10:59:00 AM 57.9403 -37.2237 266° West  Level Estimated
Mon 11:00:00 AM 57.9315 -37.4373 266° West  Level Estimated
Mon 11:01:00 AM 57.9222 -37.6507 265° West  Level Estimated
Mon 11:02:00 AM 57.9126 -37.8640 265° West  Level Estimated
Mon 11:03:00 AM 57.9027 -38.0772 265° West  Level Estimated
Mon 11:04:00 AM 57.8924 -38.2903 265° West  Level Estimated
Mon 11:05:00 AM 57.8817 -38.5033 265° West  Level Estimated
Mon 11:06:00 AM 57.8707 -38.7161 265° West  Level Estimated
Mon 11:07:00 AM 57.8593 -38.9293 264° West  Level Estimated
Mon 11:08:00 AM 57.8475 -39.1422 264° West  Level Estimated
Mon 11:09:00 AM 57.8354 -39.3551 264° West  Level Estimated
Mon 11:10:00 AM 57.8230 -39.5678 264° West  Level Estimated
Mon 11:11:00 AM 57.8101 -39.7803 264° West  Level Estimated
Mon 11:12:00 AM 57.7970 -39.9927 263° West  Level Estimated
Mon 11:13:00 AM 57.7834 -40.2049 263° West  Level Estimated
Mon 11:14:00 AM 57.7695 -40.4170 263° West  Level Estimated
Mon 11:15:00 AM 57.7553 -40.6289 263° West  Level Estimated
Mon 11:16:00 AM 57.7407 -40.8406 263° West  Level Estimated
Mon 11:17:00 AM 57.7258 -41.0522 263° West  Level Estimated
Mon 11:18:00 AM 57.7105 -41.2636 262° West  Level Estimated
Mon 11:19:00 AM 57.6948 -41.4748 262° West  Level Estimated
Mon 11:20:00 AM 57.6788 -41.6858 262° West  Level Estimated
Mon 11:21:00 AM 57.6625 -41.8967 262° West  Level Estimated
Mon 11:22:00 AM 57.6458 -42.1073 262° West  Level Estimated
Mon 11:23:00 AM 57.6287 -42.3177 261° West  Level Estimated
Mon 11:24:00 AM 57.6113 -42.5280 261° West  Level Estimated
Mon 11:25:00 AM 57.5936 -42.7380 261° West  Level Estimated
Mon 11:26:00 AM 57.5755 -42.9479 261° West  Level Estimated
Mon 11:27:00 AM 57.5570 -43.1575 261° West  Level Estimated
Mon 11:28:00 AM 57.5382 -43.3669 261° West  Level Estimated
Mon 11:29:00 AM 57.5191 -43.5761 260° West  Level Estimated
Mon 11:30:00 AM 57.4996 -43.7851 260° West  Level Estimated
Mon 11:31:00 AM 57.4798 -43.9938 260° West  Level Estimated
Mon 11:32:00 AM 57.4596 -44.2024 260° West  Level Estimated
Mon 11:33:00 AM 57.4391 -44.4106 260° West  Level Estimated
Mon 11:34:00 AM 57.4182 -44.6187 260° West  Level Estimated
Mon 11:35:00 AM 57.3970 -44.8265 259° West  Level Estimated
Mon 11:36:00 AM 57.3755 -45.0341 259° West  Level Estimated
Mon 11:37:00 AM 57.3536 -45.2414 259° West  Level Estimated
Mon 11:38:00 AM 57.3313 -45.4485 259° West  Level Estimated
Mon 11:39:00 AM 57.3088 -45.6553 259° West  Level Estimated
Mon 11:40:00 AM 57.2859 -45.8619 258° West  Level Estimated
Mon 11:41:00 AM 57.2626 -46.0682 258° West  Level Estimated
Mon 11:42:00 AM 57.2390 -46.2742 258° West  Level Estimated
Mon 11:43:00 AM 57.2151 -46.4800 258° West  Level Estimated
Mon 11:44:00 AM 57.1908 -46.6855 258° West  Level Estimated
Mon 11:45:00 AM 57.1663 -46.8908 258° West  Level Estimated
Mon 11:46:00 AM 57.1413 -47.0957 257° West  Level Estimated
Mon 11:47:00 AM 57.1161 -47.3004 257° West  Level Estimated
Mon 11:48:00 AM 57.0905 -47.5048 257° West  Level Estimated
Mon 11:49:00 AM 57.0646 -47.7089 257° West  Level Estimated
Mon 11:50:00 AM 57.0383 -47.9128 257° West  Level Estimated
Mon 11:51:00 AM 57.0117 -48.1163 257° West  Level Estimated
Mon 11:52:00 AM 56.9848 -48.3196 256° West  Level Estimated
Mon 11:53:00 AM 56.9576 -48.5225 256° West  Level Estimated
Mon 11:54:00 AM 56.9299 -48.7256 256° West  Level Estimated
Mon 11:55:00 AM 56.9020 -48.9283 256° West  Level Estimated
Mon 11:56:00 AM 56.8737 -49.1308 256° West  Level Estimated
Mon 11:57:00 AM 56.8451 -49.3329 256° West  Level Estimated
Mon 11:58:00 AM 56.8162 -49.5348 255° West  Level Estimated
Mon 11:59:00 AM 56.7869 -49.7363 255° West  Level Estimated
Mon 12:00:00 PM 56.7573 -49.9375 255° West  Level Estimated
Mon 12:01:00 PM 56.7274 -50.1384 255° West  Level Estimated
Mon 12:02:00 PM 56.6972 -50.3389 255° West  Level Estimated
Mon 12:03:00 PM 56.6666 -50.5392 255° West  Level Estimated
Mon 12:04:00 PM 56.6357 -50.7391 254° West  Level Estimated
Mon 12:05:00 PM 56.6046 -50.9386 254° West  Level Estimated
Mon 12:06:00 PM 56.5731 -51.1379 254° West  Level Estimated
Mon 12:07:00 PM 56.5412 -51.3368 254° West  Level Estimated
Mon 12:08:00 PM 56.5091 -51.5354 254° West  Level Estimated
Mon 12:09:00 PM 56.4766 -51.7336 254° West  Level Estimated
Mon 12:10:00 PM 56.4438 -51.9315 253° West  Level Estimated
Mon 12:11:00 PM 56.4107 -52.1291 253° West  Level Estimated
Mon 12:12:00 PM 56.3773 -52.3263 253° West  Level Estimated
Mon 12:13:00 PM 56.3436 -52.5232 253° West  Level Estimated
Mon 12:14:00 PM 56.3096 -52.7197 253° West  Level Estimated
Mon 12:15:00 PM 56.2752 -52.9159 253° West  Level Estimated
Mon 12:16:00 PM 56.2406 -53.1117 252° West  Level Estimated
Mon 12:17:00 PM 56.2056 -53.3071 252° West  Level Estimated
Mon 12:18:00 PM 56.1704 -53.5022 252° West  Level Estimated
Mon 12:19:00 PM 56.1348 -53.6970 252° West  Level Estimated
Mon 12:20:00 PM 56.0989 -53.8914 252° West  Level Estimated
Mon 12:21:00 PM 56.0627 -54.0854 252° West  Level Estimated
Mon 12:22:00 PM 56.0266 -54.2901 253° West  Level FlightAware Approximate
Mon 12:23:00 PM 55.9902 -54.4944 252° West  Level FlightAware Approximate
Mon 12:24:00 PM 55.9534 -54.6983 252° West  Level FlightAware Approximate
Mon 12:25:00 PM 55.9164 -54.9019 252° West  Level FlightAware Approximate
Mon 12:26:00 PM 55.8789 -55.1050 252° West  Level FlightAware Approximate
Mon 12:26:17 PM 55.5500 -56.8500 255° West 420 483 35,100  Level Gander Center
Mon 12:27:00 PM 55.8411 -55.3078 252° West  Level FlightAware Approximate
Mon 12:27:17 PM 55.5167 -57.0667 255° West 420 483 36,000  Level Gander Center
Mon 12:28:00 PM 55.8030 -55.5101 252° West  Level FlightAware Approximate
Mon 12:29:00 PM 55.7646 -55.7121 251° West  Level FlightAware Approximate
Mon 12:29:17 PM 55.4500 -57.4500 253° West 420 483 36,000  Level Gander Center
Mon 12:30:00 PM 55.7258 -55.9137 251° West  Level FlightAware Approximate
Mon 12:30:17 PM 55.4000 -57.6333 244° Southwest 420 483 36,000  Level Gander Center
Mon 12:31:00 PM 55.6958 -56.1198 256° West  Level FlightAware Approximate
Mon 12:31:17 PM 55.3500 -57.8500 248° West 430 495 36,000  Level Gander Center
Mon 12:32:00 PM 55.6654 -56.3256 255° West  Level FlightAware Approximate
Mon 12:32:17 PM 55.3167 -58.0167 251° West 430 495 36,000  Level Gander Center
Mon 12:33:17 PM 55.2667 -58.2333 248° West 430 495 36,000  Level Gander Center
Mon 12:35:00 PM 55.1923 -58.5359 247° West  Level FlightAware Approximate
Mon 12:35:17 PM 55.1667 -58.6167 247° West 420 483 36,000  Level Gander Center
Mon 12:36:17 PM 55.1333 -58.8000 252° West 420 483 36,000  Level Gander Center
Mon 12:37:57 PM 55.0500 -59.0667 241° Southwest 420 483 36,000  Level Montreal Center
Mon 12:38:26 PM 55.0333 -59.1833 256° West 420 483 36,000  Level Gander Center
Mon 12:39:26 PM 54.9833 -59.3833 247° West 420 483 36,000  Level Gander Center
Mon 12:40:17 PM 54.9333 -59.5333 240° Southwest 420 483 36,000  Level Gander Center
Mon 12:41:26 PM 54.8833 -59.7500 248° West 420 483 36,000  Level Gander Center
Mon 12:43:00 PM 54.8311 -59.9491 246° West  Level FlightAware Approximate
Mon 12:43:17 PM 54.8167 -60.1000 246° West 420 483 36,000  Level Gander Center
Mon 12:44:57 PM 54.7167 -60.3667 237° Southwest 420 483 36,000  Level Montreal Center
Mon 12:45:26 PM 54.7000 -60.5000 258° West 420 483 36,000  Level Gander Center
Mon 12:47:00 PM 54.6479 -60.6983 246° West  Level FlightAware Approximate
Mon 12:47:26 PM 54.6000 -60.8500 246° West 420 483 36,000  Level Gander Center
Mon 12:48:17 PM 54.5667 -61.0000 249° West 420 483 36,000  Level Gander Center
Mon 12:49:58 PM 54.4667 -61.2500 236° Southwest 420 483 36,000  Level Montreal Center
Mon 12:50:26 PM 54.4500 -61.4000 259° West 420 483 36,000  Level Gander Center
Mon 12:51:17 PM 54.4167 -61.5667 251° West 420 483 36,000  Level Gander Center
Mon 12:52:26 PM 54.3500 -61.7667 240° Southwest 420 483 36,000  Level Gander Center
Mon 12:53:17 PM 54.3167 -61.9167 249° West 420 483 36,000  Level Gander Center
Mon 12:55:26 PM 54.2167 -62.3167 247° West 420 483 36,000  Level Gander Center
Mon 12:56:17 PM 54.1667 -62.4500 237° Southwest 420 483 36,000  Level Gander Center
Mon 12:57:17 PM 54.1000 -62.6167 236° Southwest 420 483 36,000  Level Gander Center
Mon 12:58:17 PM 54.0500 -62.8167 247° West 420 483 36,000  Level Gander Center
Mon 12:59:17 PM 54.0000 -62.9833 243° Southwest 420 483 36,000  Level Gander Center
Mon 01:01:17 PM 53.9167 -63.3500 249° West 420 483 36,000  Level Gander Center
Mon 01:04:00 PM 53.8315 -63.6342 243° Southwest  Level FlightAware Approximate
Mon 01:04:17 PM 53.7500 -63.8833 243° Southwest 420 483 36,000  Level Gander Center
Mon 01:06:17 PM 53.6500 -64.2167 243° Southwest 410 472 36,000  Level Gander Center
Mon 01:07:57 PM 53.5667 -64.4833 242° Southwest 410 472 36,000  Level Montreal Center
Mon 01:08:58 PM 53.5167 -64.6333 241° Southwest 410 472 36,000  Level Montreal Center
Mon 01:09:17 PM 53.4833 -64.7667 247° West 410 472 36,000  Level Gander Center
Mon 01:10:17 PM 53.4333 -64.9333 243° Southwest 420 483 36,000  Level Gander Center
Mon 01:11:17 PM 53.3833 -65.1000 243° Southwest 420 483 36,000  Level Gander Center
Mon 01:13:00 PM 53.2880 -65.4000 242° Southwest  Level FlightAware Approximate
Mon 01:13:17 PM 53.2667 -65.4500 242° Southwest 420 483 36,000  Level Gander Center
Mon 01:14:17 PM 53.2167 -65.6167 243° Southwest 430 495 36,000  Level Gander Center
Mon 01:15:17 PM 53.1667 -65.8000 246° West 420 483 36,000  Level Gander Center
Mon 01:15:57 PM 53.1333 -65.8667 230° Southwest 420 483 36,000  Level Montreal Center
Mon 01:18:17 PM 52.9833 -66.3167 241° Southwest 420 483 36,000  Level Gander Center
Mon 01:18:57 PM 52.9500 -66.3833 230° Southwest 420 483 36,000  Level Montreal Center
Mon 01:19:57 PM 52.9000 -66.5333 241° Southwest 420 483 36,000  Level Montreal Center
Mon 01:20:57 PM 52.8500 -66.7167 246° West 420 483 36,000  Level Montreal Center
Mon 01:21:57 PM 52.7833 -66.9000 239° Southwest 420 483 36,000  Level Montreal Center
Mon 01:22:57 PM 52.7167 -67.0833 239° Southwest 420 483 36,000  Level Montreal Center
Mon 01:23:57 PM 52.6667 -67.2333 241° Southwest 420 483 36,000  Level Montreal Center
Mon 01:25:00 PM 52.6054 -67.4112 241° Southwest  Level FlightAware Approximate
Mon 01:25:57 PM 52.5500 -67.5667 241° Southwest 420 483 36,000  Level Montreal Center
Mon 01:26:57 PM 52.5000 -67.7333 244° Southwest 420 483 36,000  Level Montreal Center
Mon 01:30:00 PM 52.3970 -68.0202 240° Southwest  Level FlightAware Approximate
Mon 01:30:57 PM 52.2500 -68.4000 240° Southwest 420 483 36,000  Level Montreal Center
Mon 01:32:57 PM 52.1333 -68.7167 239° Southwest 420 483 36,000  Level Montreal Center
Mon 01:34:57 PM 52.0167 -69.0667 242° Southwest 420 483 36,000  Level Montreal Center
Mon 01:35:57 PM 51.9667 -69.2167 242° Southwest 410 472 36,000  Level Montreal Center
Mon 01:36:57 PM 51.8833 -69.3833 231° Southwest 410 472 36,000  Level Montreal Center
Mon 01:37:57 PM 51.8333 -69.5333 242° Southwest 410 472 36,000  Level Montreal Center
Mon 01:38:57 PM 51.7667 -69.7000 237° Southwest 410 472 36,000  Level Montreal Center
Mon 01:39:57 PM 51.7167 -69.8500 242° Southwest 420 483 36,000  Level Montreal Center
Mon 01:42:00 PM 51.5907 -70.1833 239° Southwest  Level FlightAware Approximate
Mon 01:42:17 PM 51.5667 -70.2500 239° Southwest 420 483 36,000  Level Gander Center
Mon 01:44:00 PM 51.4600 -70.5272 238° Southwest  Level FlightAware Approximate
Mon 01:44:17 PM 51.4333 -70.5833 238° Southwest 420 483 36,000  Level Gander Center
Mon 01:45:17 PM 51.4000 -70.7667 254° West 420 483 36,000  Level Gander Center
Mon 01:46:57 PM 51.2833 -70.9833 229° Southwest 420 483 36,000  Level Montreal Center
Mon 01:47:57 PM 51.2167 -71.1333 235° Southwest 420 483 36,000  Level Montreal Center
Mon 01:48:57 PM 51.1500 -71.3000 238° Southwest 430 495 36,000  Level Montreal Center
Mon 01:55:47 PM 50.7100 -72.4030 238° Southwest 437 503 36,000  Level FlightAware ADS-B
Mon 01:56:27 PM 50.6710 -72.4930 236° Southwest 437 503 36,000  Level FlightAware ADS-B
Mon 01:57:17 PM 50.6230 -72.6050 236° Southwest 437 503 36,000  Level FlightAware ADS-B
Mon 01:57:57 PM 50.5850 -72.6950 236° Southwest 437 503 36,000  Level FlightAware ADS-B
Mon 01:58:37 PM 50.5460 -72.7850 236° Southwest 437 503 36,000  Level FlightAware ADS-B
Mon 01:59:27 PM 50.4980 -72.8970 236° Southwest 437 503 36,000  Level FlightAware ADS-B
Mon 02:00:07 PM 50.4600 -72.9860 236° Southwest 437 503 36,000  Level FlightAware ADS-B
Mon 02:00:47 PM 50.4210 -73.0760 236° Southwest 437 503 36,000  Level FlightAware ADS-B
Mon 02:01:27 PM 50.3830 -73.1650 236° Southwest 437 503 36,000  Level FlightAware ADS-B
Mon 02:02:07 PM 50.3440 -73.2550 236° Southwest 437 503 36,000  Level FlightAware ADS-B
Mon 02:02:57 PM 50.2960 -73.3660 236° Southwest 437 503 36,000  Level FlightAware ADS-B
Mon 02:03:37 PM 50.2580 -73.4550 236° Southwest 437 503 36,000  Level FlightAware ADS-B
Mon 02:04:17 PM 50.2190 -73.5440 236° Southwest 437 503 36,000  Level FlightAware ADS-B
Mon 02:04:57 PM 50.1810 -73.6330 236° Southwest 437 503 36,000  Level FlightAware ADS-B
Mon 02:05:57 PM 49.9667 -74.0000 236° Southwest 450 518 36,000  Level Montreal Center
Mon 02:06:57 PM 49.9000 -74.1333 232° Southwest 450 518 36,000  Level Montreal Center
Mon 02:09:00 PM 49.7275 -74.3985 226° Southwest  Level FlightAware Approximate
Mon 02:10:57 PM 49.5500 -74.7167 226° Southwest 450 518 36,000  Level Montreal Center
Mon 02:11:57 PM 49.4667 -74.8833 232° Southwest 450 518 36,000  Level Montreal Center
Mon 02:14:00 PM 49.2815 -75.1300 226° Southwest  Level FlightAware Approximate
Mon 02:15:57 PM 49.1333 -75.4000 226° Southwest 430 495 36,000  Level Montreal Center
Mon 02:16:00 PM 49.1572 -75.3246 226° Southwest  Level FlightAware Approximate
Mon 02:16:57 PM 49.0333 -75.5333 221° Southwest 430 495 36,000  Level Montreal Center
Mon 02:18:00 PM 48.9439 -75.6645 224° Southwest  Level FlightAware Approximate
Mon 02:18:57 PM 48.8667 -75.8167 224° Southwest 430 495 36,000  Level Montreal Center
Mon 02:20:57 PM 48.7000 -76.0667 225° Southwest 430 495 36,000  Level Montreal Center
Mon 02:21:00 PM 48.7014 -76.0337 226° Southwest  Level FlightAware Approximate
Mon 02:22:00 PM 48.6123 -76.1997 225° Southwest  Level FlightAware Approximate
Mon 02:22:57 PM 48.5333 -76.3167 225° Southwest 440 506 36,000  Level Montreal Center
Mon 02:24:57 PM 48.3667 -76.5667 225° Southwest 440 506 36,000  Level Montreal Center
Mon 02:26:41 PM 48.2000 -76.7833 221° Southwest 440 506 36,000  Level Toronto Center
Mon 02:26:57 PM 48.1833 -76.8500 249° West 440 506 36,000  Level Montreal Center
Mon 02:28:57 PM 48.0167 -77.1000 225° Southwest 440 506 36,000  Level Montreal Center
Mon 02:29:57 PM 47.9167 -77.2500 225° Southwest 440 506 36,000  Level Montreal Center
Mon 02:30:57 PM 47.8333 -77.3667 223° Southwest 440 506 36,000  Level Montreal Center
Mon 02:31:57 PM 47.7500 -77.4833 223° Southwest 440 506 36,000  Level Montreal Center
Mon 02:32:57 PM 47.6667 -77.6167 227° Southwest 440 506 36,000  Level Montreal Center
Mon 02:33:57 PM 47.5667 -77.7333 218° Southwest 440 506 36,000  Level Montreal Center
Mon 02:34:57 PM 47.4833 -77.8833 231° Southwest 440 506 36,000  Level Montreal Center
Mon 02:35:57 PM 47.4000 -78.0000 223° Southwest 440 506 36,000  Level Montreal Center
Mon 02:36:57 PM 47.3167 -78.1167 224° Southwest 440 506 36,000  Level Montreal Center
Mon 02:43:37 PM 46.7430 -78.9640 224° Southwest 438 504 36,000  Level FlightAware ADS-B
Mon 02:44:27 PM 46.6930 -79.0820 238° Southwest 437 503 36,000  Level FlightAware ADS-B
Mon 02:45:07 PM 46.6510 -79.1770 237° Southwest 436 502 36,000  Level FlightAware ADS-B
Mon 02:45:52 PM 46.5980 -79.2990 238° Southwest 436 502 36,000  Level FlightAware ADS-B
Mon 02:46:32 PM 46.5560 -79.3950 238° Southwest 435 501 36,000  Level FlightAware ADS-B
Mon 02:47:32 PM 46.4940 -79.5370 238° Southwest 433 498 36,000  Level FlightAware ADS-B
Mon 02:48:12 PM 46.4460 -79.6430 237° Southwest 434 499 36,000  Level FlightAware ADS-B
Mon 02:48:52 PM 46.4030 -79.7390 237° Southwest 434 499 36,000  Level FlightAware ADS-B
Mon 02:49:37 PM 46.3550 -79.8450 237° Southwest 435 501 36,000  Level FlightAware ADS-B
Mon 02:50:17 PM 46.3090 -79.9470 237° Southwest 436 502 36,000  Level FlightAware ADS-B
Mon 02:50:52 PM 46.2710 -80.0290 236° Southwest 436 502 36,000  Level FlightAware ADS-B
Mon 02:51:32 PM 46.2300 -80.1210 237° Southwest 438 504 36,000  Level FlightAware ADS-B
Mon 02:52:17 PM 46.1790 -80.2320 236° Southwest 439 505 36,000  Level FlightAware ADS-B
Mon 02:52:57 PM 46.1310 -80.3360 236° Southwest 441 507 36,000  Level FlightAware ADS-B
Mon 02:53:37 PM 46.0870 -80.4330 237° Southwest 441 507 36,000  Level FlightAware ADS-B
Mon 02:54:22 PM 46.0370 -80.5400 236° Southwest 441 507 36,000  Level FlightAware ADS-B
Mon 02:54:57 PM 45.9990 -80.6220 236° Southwest 442 509 36,000  Level FlightAware ADS-B
Mon 02:55:42 PM 45.9460 -80.7360 236° Southwest 442 509 36,000  Level FlightAware ADS-B
Mon 02:56:42 PM 45.8790 -80.8790 236° Southwest 443 510 36,000  Level FlightAware ADS-B
Mon 02:57:27 PM 45.8270 -80.9910 236° Southwest 444 511 36,000  Level FlightAware ADS-B
Mon 02:58:07 PM 45.7800 -81.0910 236° Southwest 445 512 36,000  Level FlightAware ADS-B
Mon 02:58:47 PM 45.7300 -81.1970 236° Southwest 445 512 36,000  Level FlightAware ADS-B
Mon 02:59:32 PM 45.6830 -81.2960 236° Southwest 445 512 36,000  Level FlightAware ADS-B
Mon 03:00:12 PM 45.6310 -81.4050 236° Southwest 445 512 36,000  Level FlightAware ADS-B
Mon 03:01:02 PM 45.5850 -81.5020 236° Southwest 36,000  Level FlightAware ADS-B
Mon 03:01:37 PM 45.5380 -81.6000 236° Southwest 446 513 36,000  Level FlightAware ADS-B
Mon 03:02:17 PM 45.4890 -81.7040 236° Southwest 446 513 36,000  Level FlightAware ADS-B
Mon 03:02:57 PM 45.4410 -81.8020 235° Southwest 447 514 36,000  Level FlightAware ADS-B
Mon 03:03:37 PM 45.3940 -81.8990 235° Southwest 447 514 36,000  Level FlightAware ADS-B
Mon 03:04:17 PM 45.3470 -81.9960 235° Southwest 447 514 36,000  Level FlightAware ADS-B
Mon 03:04:57 PM 45.3010 -82.0920 236° Southwest 447 514 36,000  Level FlightAware ADS-B
Mon 03:05:42 PM 45.2460 -82.2040 235° Southwest 449 517 36,000  Level FlightAware ADS-B
Mon 03:06:17 PM 45.2070 -82.2840 235° Southwest 449 517 36,000  Level FlightAware ADS-B
Mon 03:07:02 PM 45.1520 -82.3960 235° Southwest 449 517 36,000  Level FlightAware ADS-B
Mon 03:07:47 PM 45.1000 -82.5010 235° Southwest 450 518 36,000  Level FlightAware ADS-B
Mon 03:08:27 PM 45.0520 -82.5980 235° Southwest 450 518 36,000  Level FlightAware ADS-B
Mon 03:09:12 PM 44.9980 -82.7060 235° Southwest 450 518 36,000  Level FlightAware ADS-B
Mon 03:09:52 PM 44.9500 -82.8040 235° Southwest 452 520 36,000  Level FlightAware ADS-B
Mon 03:10:32 PM 44.9010 -82.9010 235° Southwest 451 519 36,000  Level FlightAware ADS-B
Mon 03:11:17 PM 44.8480 -83.0080 235° Southwest 452 520 36,000  Level FlightAware ADS-B
Mon 03:11:57 PM 44.8000 -83.1030 235° Southwest 453 521 36,000  Level FlightAware ADS-B
Mon 03:12:37 PM 44.7500 -83.2010 234° Southwest 454 522 36,000  Level FlightAware ADS-B
Mon 03:13:22 PM 44.6950 -83.3100 235° Southwest 455 524 36,000  Level FlightAware ADS-B
Mon 03:14:02 PM 44.6470 -83.4040 234° Southwest 456 525 36,000  Level FlightAware ADS-B
Mon 03:14:47 PM 44.5920 -83.5120 234° Southwest 457 526 36,000  Level FlightAware ADS-B
Mon 03:15:27 PM 44.5420 -83.6090 234° Southwest 458 527 36,000  Level FlightAware ADS-B
Mon 03:16:12 PM 44.4860 -83.7190 235° Southwest 459 528 36,000  Level FlightAware ADS-B
Mon 03:16:52 PM 44.4350 -83.8160 234° Southwest 460 529 36,000  Level FlightAware ADS-B
Mon 03:17:32 PM 44.3890 -83.9060 234° Southwest 460 529 36,000  Level FlightAware ADS-B
Mon 03:18:17 PM 44.3320 -84.0160 234° Southwest 460 529 36,000  Level FlightAware ADS-B
Mon 03:18:57 PM 44.2790 -84.1170 234° Southwest 460 529 36,000  Level FlightAware ADS-B
Mon 03:19:37 PM 44.2310 -84.2090 234° Southwest 460 529 36,000  Level FlightAware ADS-B
Mon 03:20:22 PM 44.1730 -84.3190 234° Southwest 460 529 36,000  Level FlightAware ADS-B
Mon 03:21:02 PM 44.1220 -84.4150 234° Southwest 460 529 36,000  Level FlightAware ADS-B
Mon 03:21:47 PM 44.0670 -84.5190 234° Southwest 460 529 36,000  Level FlightAware ADS-B
Mon 03:22:27 PM 44.0170 -84.6140 234° Southwest 461 531 36,000  Level FlightAware ADS-B
Mon 03:23:12 PM 43.9580 -84.7250 234° Southwest 463 533 36,000  Level FlightAware ADS-B
Mon 03:23:52 PM 43.9060 -84.8200 233° Southwest 464 534 36,000 -300 Level FlightAware ADS-B
Mon 03:24:32 PM 43.8560 -84.9140 234° Southwest 460 529 35,600 -918 Descending FlightAware ADS-B
Mon 03:25:17 PM 43.8000 -85.0180 233° Southwest 460 529 34,700 -1,129 Descending FlightAware ADS-B
Mon 03:25:57 PM 43.7470 -85.1160 233° Southwest 461 531 34,000 -1,725 Descending FlightAware ADS-B
Mon 03:26:37 PM 43.6930 -85.1980 228° Southwest 452 520 32,400 -1,412 Descending FlightAware ADS-B
Mon 03:27:22 PM 43.6040 -85.2440 201° Southwest 446 513 32,000 -282 Descending FlightAware ADS-B
Mon 03:28:02 PM 43.5250 -85.2700 193° South 450 518 32,000 -525 Level FlightAware ADS-B
Mon 03:28:42 PM 43.4470 -85.3160 203° Southwest 460 529 31,300 -1,765 Descending FlightAware ADS-B
Mon 03:29:27 PM 43.3870 -85.4140 230° Southwest 474 545 29,500 -2,894 Descending FlightAware ADS-B
Mon 03:30:07 PM 43.3340 -85.5120 233° Southwest 486 559 27,200 -3,318 Descending FlightAware ADS-B
Mon 03:30:52 PM 43.2740 -85.6240 234° Southwest 471 542 24,800 -2,188 Descending FlightAware ADS-B
Mon 03:31:32 PM 43.2220 -85.7210 234° Southwest 474 545 24,100 -565 Descending FlightAware ADS-B
Mon 03:32:17 PM 43.1640 -85.8270 233° Southwest 481 554 24,000 -71 Descending FlightAware ADS-B
Mon 03:32:57 PM 43.1120 -85.9240 234° Southwest 482 555 24,000  Level FlightAware ADS-B
Mon 03:33:27 PM 43.0720 -85.9980 234° Southwest 480 552 24,000  Level FlightAware ADS-B
Mon 03:34:02 PM 43.0240 -86.0840 233° Southwest 473 544 24,000  Level FlightAware ADS-B
Mon 03:34:47 PM 42.9650 -86.1920 233° Southwest 470 541 24,000 -200 Level FlightAware ADS-B
Mon 03:35:32 PM 42.9050 -86.3000 233° Southwest 470 541 23,700 -1,624 Descending FlightAware ADS-B
Mon 03:36:12 PM 42.8560 -86.3890 233° Southwest 457 526 21,700 -2,400 Descending FlightAware ADS-B
Mon 03:36:52 PM 42.8090 -86.4850 236° Southwest 447 514 20,500 -1,650 Descending FlightAware ADS-B
Mon 03:37:32 PM 42.7640 -86.5790 237° Southwest 437 503 19,500 -1,500 Descending FlightAware ADS-B
Mon 03:38:12 PM 42.7190 -86.6700 236° Southwest 431 496 18,500 -1,482 Descending FlightAware ADS-B
Mon 03:38:57 PM 42.6700 -86.7670 236° Southwest 425 489 17,400 -1,624 Descending FlightAware ADS-B
Mon 03:39:37 PM 42.6260 -86.8550 236° Southwest 415 478 16,200 -2,471 Descending FlightAware ADS-B
Mon 03:40:22 PM 42.5780 -86.9520 236° Southwest 404 465 13,900 -3,035 Descending FlightAware ADS-B
Mon 03:41:02 PM 42.5390 -87.0300 236° Southwest 395 455 11,900 -2,682 Descending FlightAware ADS-B
Mon 03:41:47 PM 42.4920 -87.1220 235° Southwest 386 444 10,100 -1,600 Descending FlightAware ADS-B
Mon 03:42:17 PM 42.4610 -87.1830 235° Southwest 384 442 9,900 -218 Descending FlightAware ADS-B
Mon 03:42:42 PM 42.4350 -87.2350 236° Southwest 385 443 9,900  Level FlightAware ADS-B
Mon 03:43:07 PM 42.4090 -87.2870 236° Southwest 386 444 9,900  Level FlightAware ADS-B
Mon 03:43:37 PM 42.3870 -87.3420 242° Southwest 388 447 9,900  Level FlightAware ADS-B
Mon 03:44:07 PM 42.3660 -87.4160 249° West 387 445 9,900  Level FlightAware ADS-B
Mon 03:44:37 PM 42.3470 -87.4840 249° West 387 445 9,900  Level FlightAware ADS-B
Mon 03:45:02 PM 42.3240 -87.5340 238° Southwest 385 443 9,900  Level FlightAware ADS-B
Mon 03:45:32 PM 42.2850 -87.5820 222° Southwest 383 441 9,900  Level FlightAware ADS-B
Mon 03:46:02 PM 42.2400 -87.6270 217° Southwest 384 442 9,900  Level FlightAware ADS-B
Mon 03:46:27 PM 42.2070 -87.6600 217° Southwest 364 419 9,900  Level FlightAware ADS-B
Mon 03:46:42 PM 42.1860 -87.6820 218° Southwest 344 396 9,900  Level FlightAware ADS-B
Mon 03:47:07 PM 42.1570 -87.7110 217° Southwest 313 360 9,900  Level FlightAware ADS-B
Mon 03:47:22 PM 42.1390 -87.7300 218° Southwest 296 341 9,900 -267 Level FlightAware ADS-B
Mon 03:47:52 PM 42.1080 -87.7630 218° Southwest 287 330 9,700 -667 Descending FlightAware ADS-B
Mon 03:48:07 PM 42.0970 -87.7800 229° Southwest 288 331 9,400 -1,500 Descending FlightAware ADS-B
Mon 03:48:32 PM 42.0820 -87.8250 246° West 288 331 8,700 -1,636 Descending FlightAware ADS-B
Mon 03:49:02 PM 42.0690 -87.8750 251° West 288 331 7,900 -1,500 Descending FlightAware ADS-B
Mon 03:49:32 PM 42.0540 -87.9250 248° West 286 329 7,200 -1,200 Descending FlightAware ADS-B
Mon 03:49:52 PM 42.0460 -87.9540 250° West 285 328 6,900 -514 Descending FlightAware ADS-B
Mon 03:50:07 PM 42.0440 -87.9830 265° West 268 308 6,900 -267 Level FlightAware ADS-B
Mon 03:50:37 PM 42.0430 -88.0290 268° West 249 287 6,700 -600 Descending FlightAware ADS-B
Mon 03:51:07 PM 42.0420 -88.0760 268° West 237 273 6,300 -900 Descending FlightAware ADS-B
Mon 03:51:37 PM 42.0410 -88.1190 268° West 233 268 5,800 -933 Descending FlightAware ADS-B
Mon 03:51:52 PM 42.0400 -88.1420 267° West 232 267 5,600 -1,050 Descending FlightAware ADS-B
Mon 03:52:17 PM 42.0380 -88.1790 266° West 232 267 5,100 -1,200 Descending FlightAware ADS-B
Mon 03:52:32 PM 42.0320 -88.1960 245° Southwest 231 266 4,800 -1,200 Descending FlightAware ADS-B
Mon 03:52:47 PM 42.0180 -88.2070 210° Southwest 228 262 4,500 -1,050 Descending FlightAware ADS-B
Mon 03:53:12 PM 41.9910 -88.2090 183° South 226 260 4,100 -764 Descending FlightAware ADS-B
Mon 03:53:42 PM 41.9660 -88.1900 151° Southeast 211 243 3,800 -667 Descending FlightAware ADS-B
Mon 03:53:57 PM 41.9630 -88.1720 103° East 206 237 3,600 -900 Descending FlightAware ADS-B
Mon 03:54:22 PM 41.9630 -88.1390 90° East 203 234 3,200 -764 Descending FlightAware ADS-B
Mon 03:54:52 PM 41.9630 -88.1030 90° East 187 215 2,900 -218 Descending FlightAware ADS-B
Mon 03:55:17 PM 41.9630 -88.0760 90° East 176 203 3,000 -150 Climbing FlightAware ADS-B
Mon 03:55:32 PM 41.9630 -88.0590 90° East 172 198 2,800 -900 Descending FlightAware ADS-B
Mon 03:55:57 PM 41.9630 -88.0330 90° East 173 199 2,400 -1,067 Descending FlightAware ADS-B
Mon 03:56:17 PM 41.9630 -88.0120 90° East 166 191 2,000 -933 Descending FlightAware ADS-B
Mon 03:56:42 PM 41.9630 -87.9910 90° East 140 161 1,700 -720 Descending FlightAware ADS-B
Mon 03:57:07 PM 41.9630 -87.9700 90° East 128 147 1,400 -700 Descending FlightAware ADS-B
Mon 03:57:42 PM 41.9630 -87.9390 90° East 128 147 1,000 -700 Descending FlightAware ADS-B
Mon 03:58:07 PM 41.9630 -87.9200 90° East 133 153 700 -400 Descending FlightAware ADS-B
Mon 03:58:42 PM 41.9630 -87.8930 90° East 132 152 600 -171 Descending FlightAware ADS-B

Login

Don't have an account? Register now (free) for customized features, flight alerts, and more!